createdAt,value
2018-06-11T00:00:29.950Z,0.00
2018-06-11T00:01:29.743Z,0.00
2018-06-11T00:02:29.738Z,0.00
2018-06-11T00:03:29.734Z,0.00
2018-06-11T00:04:29.729Z,0.00
2018-06-11T00:05:29.725Z,0.00
2018-06-11T00:06:29.720Z,0.00
2018-06-11T00:07:29.716Z,0.00
2018-06-11T00:08:29.712Z,0.00
2018-06-11T00:09:29.707Z,0.00
2018-06-11T00:10:29.702Z,0.00
2018-06-11T00:11:29.701Z,0.00
2018-06-11T00:12:29.693Z,0.00
2018-06-11T00:13:29.689Z,0.00
2018-06-11T00:14:29.684Z,0.00
2018-06-11T00:15:29.680Z,0.00
2018-06-11T00:16:29.681Z,0.00
2018-06-11T00:17:29.671Z,0.00
2018-06-11T00:18:29.666Z,0.00
2018-06-11T00:19:29.661Z,0.00
2018-06-11T00:20:29.659Z,0.00
2018-06-11T00:21:29.654Z,0.00
2018-06-11T00:22:29.647Z,0.00
2018-06-11T00:23:29.646Z,0.00
2018-06-11T00:24:29.641Z,0.00
2018-06-11T00:25:29.635Z,0.00
2018-06-11T00:26:29.630Z,0.00
2018-06-11T00:27:29.625Z,0.00
2018-06-11T00:28:29.620Z,0.00
2018-06-11T00:29:29.615Z,0.00
2018-06-11T00:30:29.610Z,0.00
2018-06-11T00:31:29.606Z,0.00
2018-06-11T00:32:29.601Z,0.00
2018-06-11T00:33:29.597Z,0.00
2018-06-11T00:34:29.594Z,0.00
2018-06-11T00:35:29.587Z,0.00
2018-06-11T00:36:29.583Z,0.00
2018-06-11T00:37:29.578Z,0.00
2018-06-11T00:38:29.573Z,0.00
2018-06-11T00:39:29.568Z,0.00
2018-06-11T00:40:29.567Z,0.00
2018-06-11T00:41:29.559Z,0.00
2018-06-11T00:42:29.553Z,0.00
2018-06-11T00:43:29.549Z,0.00
2018-06-11T00:44:29.545Z,0.00
2018-06-11T00:45:29.541Z,0.00
2018-06-11T00:46:29.535Z,0.00
2018-06-11T00:47:29.535Z,0.00
2018-06-11T00:48:29.525Z,0.00
2018-06-11T00:49:29.521Z,0.00
2018-06-11T00:50:29.718Z,0.00
2018-06-11T00:51:29.511Z,0.00
2018-06-11T00:52:29.506Z,0.00
2018-06-11T00:53:29.505Z,0.00
2018-06-11T00:54:29.497Z,0.00
2018-06-11T00:55:29.494Z,0.00
2018-06-11T00:56:29.489Z,0.00
2018-06-11T00:57:29.485Z,0.00
2018-06-11T00:58:29.478Z,0.00
2018-06-11T00:59:29.473Z,0.00
2018-06-11T01:00:29.475Z,0.00
2018-06-11T01:01:29.465Z,0.00
2018-06-11T01:02:29.459Z,0.00
2018-06-11T01:03:29.454Z,0.00
2018-06-11T01:04:29.450Z,0.00
2018-06-11T01:05:29.445Z,0.00
2018-06-11T01:06:29.439Z,0.00
2018-06-11T01:07:29.435Z,0.00
2018-06-11T01:08:29.430Z,0.00
2018-06-11T01:09:29.426Z,0.00
2018-06-11T01:10:29.623Z,0.00
2018-06-11T01:11:29.416Z,0.00
2018-06-11T01:12:29.411Z,0.00
2018-06-11T01:13:29.406Z,0.00
2018-06-11T01:14:29.400Z,0.00
2018-06-11T01:15:29.399Z,0.00
2018-06-11T01:16:29.391Z,0.00
2018-06-11T01:17:29.387Z,0.00
2018-06-11T01:18:29.384Z,0.00
2018-06-11T01:19:29.376Z,0.00
2018-06-11T01:20:29.376Z,0.00
2018-06-11T01:21:29.369Z,0.00
2018-06-11T01:22:29.364Z,0.00
2018-06-11T01:23:29.357Z,0.00
2018-06-11T01:24:29.354Z,0.00
2018-06-11T01:25:29.347Z,0.00
2018-06-11T01:26:29.342Z,0.00
2018-06-11T01:27:29.337Z,0.00
2018-06-11T01:28:29.332Z,0.00
2018-06-11T01:29:29.329Z,0.00
2018-06-11T01:30:29.326Z,0.00
2018-06-11T01:31:29.322Z,0.00
2018-06-11T01:32:29.313Z,0.00
2018-06-11T01:33:29.316Z,0.00
2018-06-11T01:34:29.302Z,0.00
2018-06-11T01:35:29.297Z,0.00
2018-06-11T01:36:29.293Z,0.00
2018-06-11T01:37:29.294Z,0.00
2018-06-11T01:38:29.282Z,0.00
2018-06-11T01:39:29.277Z,0.00
2018-06-11T01:40:29.274Z,0.00
2018-06-11T01:41:29.268Z,0.00
2018-06-11T01:42:29.262Z,0.00
2018-06-11T01:43:29.257Z,0.00
2018-06-11T01:44:29.253Z,0.00
2018-06-11T01:45:29.247Z,0.00
2018-06-11T01:46:29.242Z,0.00
2018-06-11T01:47:29.237Z,0.00
2018-06-11T01:48:29.232Z,0.00
2018-06-11T01:49:29.228Z,0.00
2018-06-11T01:50:29.222Z,0.00
2018-06-11T01:51:29.218Z,0.00
2018-06-11T01:52:29.212Z,0.00
2018-06-11T01:53:29.211Z,0.00
2018-06-11T01:54:29.207Z,0.00
2018-06-11T01:55:29.196Z,0.00
2018-06-11T01:56:29.191Z,0.00
2018-06-11T01:57:29.188Z,0.00
2018-06-11T01:58:29.180Z,0.00
2018-06-11T01:59:29.175Z,0.00
2018-06-11T02:00:29.173Z,0.00
2018-06-11T02:01:29.170Z,0.00
2018-06-11T02:02:29.163Z,0.00
2018-06-11T02:03:29.155Z,0.00
2018-06-11T02:04:29.150Z,0.00
2018-06-11T02:05:29.146Z,0.00
2018-06-11T02:06:29.139Z,0.00
2018-06-11T02:07:29.137Z,0.00
2018-06-11T02:08:29.129Z,0.00
2018-06-11T02:09:29.124Z,0.00
2018-06-11T02:10:29.118Z,0.00
2018-06-11T02:11:29.115Z,0.00
2018-06-11T02:12:29.109Z,0.00
2018-06-11T02:13:29.105Z,0.00
2018-06-11T02:14:29.097Z,0.00
2018-06-11T02:15:29.092Z,0.00
2018-06-11T02:16:29.088Z,0.00
2018-06-11T02:17:29.082Z,0.00
2018-06-11T02:18:29.076Z,0.00
2018-06-11T02:19:29.071Z,0.00
2018-06-11T02:20:29.067Z,0.00
2018-06-11T02:21:29.067Z,0.00
2018-06-11T02:22:29.055Z,0.00
2018-06-11T02:23:29.051Z,0.00
2018-06-11T02:24:29.045Z,0.00
2018-06-11T02:25:29.040Z,0.00
2018-06-11T02:26:29.034Z,0.00
2018-06-11T02:27:29.032Z,0.00
2018-06-11T02:28:29.024Z,0.00
2018-06-11T02:29:29.019Z,0.00
2018-06-11T02:30:29.014Z,0.00
2018-06-11T02:31:29.009Z,0.00
2018-06-11T02:32:29.006Z,0.00
2018-06-11T02:33:29.002Z,0.00
2018-06-11T02:34:28.992Z,0.00
2018-06-11T02:35:28.988Z,0.00
2018-06-11T02:36:28.982Z,0.00
2018-06-11T02:37:28.977Z,0.00
2018-06-11T02:38:28.972Z,0.00
2018-06-11T02:39:28.965Z,0.00
2018-06-11T02:40:28.961Z,0.00
2018-06-11T02:41:28.955Z,0.00
2018-06-11T02:42:28.949Z,0.00
2018-06-11T02:43:28.946Z,0.00
2018-06-11T02:44:28.939Z,0.00
2018-06-11T02:45:28.934Z,0.00
2018-06-11T02:46:28.930Z,0.00
2018-06-11T02:47:28.922Z,0.00
2018-06-11T02:48:28.917Z,0.00
2018-06-11T02:49:28.912Z,0.00
2018-06-11T02:50:28.906Z,0.00
2018-06-11T02:51:28.904Z,0.00
2018-06-11T02:52:28.895Z,0.00
2018-06-11T02:53:28.898Z,0.00
2018-06-11T02:54:29.086Z,0.00
2018-06-11T02:55:28.883Z,0.00
2018-06-11T02:56:28.879Z,0.00
2018-06-11T02:57:28.868Z,0.00
2018-06-11T02:58:28.863Z,0.00
2018-06-11T02:59:28.862Z,0.00
2018-06-11T03:00:28.852Z,0.00
2018-06-11T03:01:28.847Z,0.00
2018-06-11T03:02:28.840Z,0.00
2018-06-11T03:03:28.840Z,0.00
2018-06-11T03:04:29.035Z,0.00
2018-06-11T03:05:28.825Z,0.00
2018-06-11T03:06:28.819Z,0.00
2018-06-11T03:07:28.818Z,0.00
2018-06-11T03:08:28.808Z,0.00
2018-06-11T03:09:28.803Z,0.00
2018-06-11T03:10:28.798Z,0.00
2018-06-11T03:11:28.791Z,0.00
2018-06-11T03:12:28.787Z,0.00
2018-06-11T03:13:28.780Z,0.00
2018-06-11T03:14:28.775Z,5.63
2018-06-11T03:15:28.850Z,5.63
2018-06-11T03:16:28.764Z,5.63
2018-06-11T03:17:28.759Z,5.63
2018-06-11T03:18:28.959Z,5.63
2018-06-11T03:19:28.748Z,5.63
2018-06-11T03:20:28.742Z,5.63
2018-06-11T03:21:28.737Z,5.63
2018-06-11T03:22:28.732Z,11.25
2018-06-11T03:23:28.729Z,11.25
2018-06-11T03:24:28.719Z,11.25
2018-06-11T03:25:28.714Z,11.25
2018-06-11T03:26:28.708Z,11.25
2018-06-11T03:27:28.701Z,11.25
2018-06-11T03:28:28.696Z,16.88
2018-06-11T03:29:28.691Z,16.88
2018-06-11T03:30:28.690Z,16.88
2018-06-11T03:31:28.679Z,16.88
2018-06-11T03:32:28.677Z,16.88
2018-06-11T03:33:28.668Z,16.88
2018-06-11T03:34:28.661Z,22.50
2018-06-11T03:35:28.660Z,22.50
2018-06-11T03:36:28.654Z,22.50
2018-06-11T03:37:28.649Z,22.50
2018-06-11T03:38:28.638Z,28.13
2018-06-11T03:39:28.632Z,28.13
2018-06-11T03:40:28.627Z,28.13
2018-06-11T03:41:28.621Z,28.13
2018-06-11T03:42:28.615Z,28.13
2018-06-11T03:43:28.613Z,33.75
2018-06-11T03:44:28.605Z,33.75
2018-06-11T03:45:28.598Z,33.75
2018-06-11T03:46:28.594Z,33.75
2018-06-11T03:47:28.587Z,33.75
2018-06-11T03:48:28.582Z,33.75
2018-06-11T03:49:28.580Z,33.75
2018-06-11T03:50:28.573Z,33.75
2018-06-11T03:51:28.563Z,39.38
2018-06-11T03:52:28.557Z,39.38
2018-06-11T03:53:28.552Z,45.00
2018-06-11T03:54:28.546Z,45.00
2018-06-11T03:55:28.540Z,50.63
2018-06-11T03:56:28.535Z,50.63
2018-06-11T03:57:28.533Z,50.63
2018-06-11T03:58:28.523Z,56.25
2018-06-11T03:59:28.518Z,56.25
2018-06-11T04:00:28.517Z,56.25
2018-06-11T04:01:28.511Z,56.25
2018-06-11T04:02:28.501Z,61.88
2018-06-11T04:03:28.496Z,61.88
2018-06-11T04:04:28.490Z,67.50
2018-06-11T04:05:28.487Z,73.13
2018-06-11T04:06:28.479Z,73.13
2018-06-11T04:07:28.477Z,78.75
2018-06-11T04:08:28.470Z,78.75
2018-06-11T04:09:28.463Z,78.75
2018-06-11T04:10:28.664Z,78.75
2018-06-11T04:11:28.455Z,84.38
2018-06-11T04:12:28.447Z,84.38
2018-06-11T04:13:28.443Z,84.38
2018-06-11T04:14:28.638Z,84.38
2018-06-11T04:15:28.430Z,78.75
2018-06-11T04:16:28.424Z,78.75
2018-06-11T04:17:28.420Z,78.75
2018-06-11T04:18:28.416Z,84.38
2018-06-11T04:19:28.449Z,84.38
2018-06-11T04:20:28.403Z,95.63
2018-06-11T04:21:28.397Z,95.63
2018-06-11T04:22:28.396Z,101.25
2018-06-11T04:23:28.387Z,101.25
2018-06-11T04:24:28.382Z,101.25
2018-06-11T04:25:28.377Z,106.88
2018-06-11T04:26:28.370Z,101.25
2018-06-11T04:27:28.365Z,101.25
2018-06-11T04:28:28.360Z,101.25
2018-06-11T04:29:28.358Z,112.50
2018-06-11T04:30:28.349Z,112.50
2018-06-11T04:31:28.345Z,118.13
2018-06-11T04:32:28.339Z,118.13
2018-06-11T04:33:28.337Z,123.75
2018-06-11T04:34:28.328Z,129.38
2018-06-11T04:35:28.323Z,140.63
2018-06-11T04:36:28.318Z,135.00
2018-06-11T04:37:28.321Z,129.38
2018-06-11T04:38:28.307Z,123.75
2018-06-11T04:39:28.305Z,123.75
2018-06-11T04:40:28.298Z,129.38
2018-06-11T04:41:28.296Z,135.00
2018-06-11T04:42:28.289Z,129.38
2018-06-11T04:43:28.282Z,129.38
2018-06-11T04:44:28.277Z,129.38
2018-06-11T04:45:28.274Z,129.38
2018-06-11T04:46:28.266Z,118.13
2018-06-11T04:47:28.261Z,118.13
2018-06-11T04:48:28.256Z,123.75
2018-06-11T04:49:28.251Z,118.13
2018-06-11T04:50:28.447Z,118.13
2018-06-11T04:51:28.242Z,112.50
2018-06-11T04:52:28.236Z,112.50
2018-06-11T04:53:28.258Z,123.75
2018-06-11T04:54:28.228Z,123.75
2018-06-11T04:55:28.223Z,123.75
2018-06-11T04:56:28.216Z,129.38
2018-06-11T04:57:28.211Z,151.88
2018-06-11T04:58:28.209Z,174.38
2018-06-11T04:59:28.205Z,180.00
2018-06-11T05:00:28.198Z,180.00
2018-06-11T05:01:28.197Z,180.00
2018-06-11T05:02:28.195Z,196.88
2018-06-11T05:04:28.177Z,213.75
2018-06-11T05:05:28.171Z,219.38
2018-06-11T05:06:28.172Z,236.25
2018-06-11T05:07:28.161Z,230.63
2018-06-11T05:08:28.159Z,241.88
2018-06-11T05:09:28.151Z,253.13
2018-06-11T05:10:28.146Z,247.50
2018-06-11T05:11:28.147Z,264.38
2018-06-11T05:12:28.137Z,264.38
2018-06-11T05:13:28.338Z,247.50
2018-06-11T05:14:28.130Z,236.25
2018-06-11T05:15:28.129Z,241.88
2018-06-11T05:16:28.119Z,253.13
2018-06-11T05:17:28.119Z,241.88
2018-06-11T05:18:28.112Z,247.50
2018-06-11T05:19:28.110Z,247.50
2018-06-11T05:20:28.102Z,258.75
2018-06-11T05:21:28.098Z,241.88
2018-06-11T05:22:28.092Z,219.38
2018-06-11T05:23:28.091Z,225.00
2018-06-11T05:24:28.085Z,230.63
2018-06-11T05:25:28.081Z,253.13
2018-06-11T05:26:28.074Z,264.38
2018-06-11T05:27:28.071Z,281.25
2018-06-11T05:28:28.066Z,331.88
2018-06-11T05:29:28.062Z,376.88
2018-06-11T05:30:28.059Z,399.38
2018-06-11T05:31:28.054Z,393.75
2018-06-11T05:32:28.049Z,382.50
2018-06-11T05:33:28.046Z,405.00
2018-06-11T05:34:28.047Z,382.50
2018-06-11T05:35:28.037Z,376.88
2018-06-11T05:36:28.033Z,371.25
2018-06-11T05:37:28.034Z,360.00
2018-06-11T05:38:28.030Z,326.25
2018-06-11T05:39:28.021Z,303.75
2018-06-11T05:40:28.143Z,275.63
2018-06-11T05:41:28.014Z,258.75
2018-06-11T05:42:28.011Z,253.13
2018-06-11T05:43:28.011Z,247.50
2018-06-11T05:44:28.002Z,247.50
2018-06-11T05:45:28.003Z,258.75
2018-06-11T05:46:27.995Z,270.00
2018-06-11T05:47:27.993Z,281.25
2018-06-11T05:48:27.988Z,264.38
2018-06-11T05:49:27.987Z,258.75
2018-06-11T05:50:27.979Z,258.75
2018-06-11T05:51:27.974Z,275.63
2018-06-11T05:52:27.974Z,281.25
2018-06-11T05:53:28.011Z,292.50
2018-06-11T05:54:27.966Z,309.38
2018-06-11T05:55:27.962Z,303.75
2018-06-11T05:56:27.956Z,331.88
2018-06-11T05:57:27.960Z,331.88
2018-06-11T05:58:27.947Z,303.75
2018-06-11T05:59:27.945Z,315.00
2018-06-11T06:00:27.939Z,303.75
2018-06-11T06:01:27.935Z,309.38
2018-06-11T06:02:27.930Z,320.63
2018-06-11T06:03:27.930Z,320.63
2018-06-11T06:04:27.923Z,337.50
2018-06-11T06:05:27.921Z,337.50
2018-06-11T06:06:27.915Z,365.63
2018-06-11T06:07:27.915Z,365.63
2018-06-11T06:08:27.908Z,348.75
2018-06-11T06:09:27.907Z,343.13
2018-06-11T06:10:27.904Z,343.13
2018-06-11T06:11:27.898Z,371.25
2018-06-11T06:12:27.893Z,376.88
2018-06-11T06:13:27.888Z,365.63
2018-06-11T06:14:27.892Z,388.13
2018-06-11T06:15:27.882Z,427.50
2018-06-11T06:16:27.877Z,466.88
2018-06-11T06:17:27.875Z,506.25
2018-06-11T06:18:27.868Z,495.00
2018-06-11T06:19:27.865Z,483.75
2018-06-11T06:20:27.862Z,556.88
2018-06-11T06:21:27.861Z,556.88
2018-06-11T06:22:27.856Z,562.50
2018-06-11T06:23:27.853Z,556.88
2018-06-11T06:24:27.847Z,562.50
2018-06-11T06:25:27.844Z,573.75
2018-06-11T06:26:27.842Z,534.38
2018-06-11T06:27:27.837Z,556.88
2018-06-11T06:28:27.834Z,573.75
2018-06-11T06:29:27.831Z,545.63
2018-06-11T06:30:27.829Z,551.25
2018-06-11T06:31:28.033Z,551.25
2018-06-11T06:32:27.826Z,675.00
2018-06-11T06:33:27.825Z,652.50
2018-06-11T06:34:27.932Z,646.88
2018-06-11T06:35:27.818Z,663.75
2018-06-11T06:36:27.811Z,618.75
2018-06-11T06:37:27.811Z,579.38
2018-06-11T06:38:27.804Z,624.38
2018-06-11T06:39:27.804Z,663.75
2018-06-11T06:40:27.852Z,669.38
2018-06-11T06:41:27.800Z,652.50
2018-06-11T06:42:27.795Z,675.00
2018-06-11T06:43:27.791Z,759.38
2018-06-11T06:44:27.791Z,731.25
2018-06-11T06:45:27.787Z,551.25
2018-06-11T06:46:27.788Z,556.88
2018-06-11T06:47:27.785Z,770.63
2018-06-11T06:48:27.780Z,781.88
2018-06-11T06:49:27.779Z,798.75
2018-06-11T06:50:27.777Z,714.38
2018-06-11T06:51:27.776Z,888.75
2018-06-11T06:52:27.769Z,855.00
2018-06-11T06:53:27.769Z,787.50
2018-06-11T06:54:27.765Z,888.75
2018-06-11T06:55:27.764Z,967.50
2018-06-11T06:56:27.761Z,1080.00
2018-06-11T06:57:27.760Z,1096.88
2018-06-11T06:58:27.762Z,1164.38
2018-06-11T06:59:27.758Z,1136.25
2018-06-11T07:00:27.757Z,1186.88
2018-06-11T07:01:27.753Z,1231.88
2018-06-11T07:02:27.751Z,1288.13
2018-06-11T07:03:27.749Z,1215.00
2018-06-11T07:04:27.749Z,1074.38
2018-06-11T07:05:27.748Z,1012.50
2018-06-11T07:06:27.746Z,1023.75
2018-06-11T07:07:27.745Z,984.38
2018-06-11T07:08:27.745Z,911.25
2018-06-11T07:09:27.744Z,793.13
2018-06-11T07:10:27.742Z,736.88
2018-06-11T07:11:27.742Z,680.63
2018-06-11T07:12:27.741Z,697.50
2018-06-11T07:13:27.743Z,720.00
2018-06-11T07:14:27.738Z,669.38
2018-06-11T07:15:27.737Z,613.13
2018-06-11T07:16:27.738Z,596.25
2018-06-11T07:17:27.736Z,579.38
2018-06-11T07:18:27.733Z,652.50
2018-06-11T07:19:27.732Z,697.50
2018-06-11T07:20:27.731Z,810.00
2018-06-11T07:21:27.730Z,905.63
2018-06-11T07:22:27.728Z,939.38
2018-06-11T07:23:27.727Z,950.63
2018-06-11T07:24:27.726Z,922.50
2018-06-11T07:25:27.726Z,843.75
2018-06-11T07:26:27.725Z,748.13
2018-06-11T07:27:27.724Z,658.13
2018-06-11T07:28:27.722Z,579.38
2018-06-11T07:29:27.722Z,545.63
2018-06-11T07:30:27.720Z,523.13
2018-06-11T07:31:27.724Z,517.50
2018-06-11T07:32:27.772Z,528.75
2018-06-11T07:33:27.727Z,562.50
2018-06-11T07:34:27.716Z,596.25
2018-06-11T07:35:27.718Z,601.88
2018-06-11T07:36:27.714Z,568.13
2018-06-11T07:37:27.718Z,585.00
2018-06-11T07:38:27.914Z,663.75
2018-06-11T07:39:27.717Z,714.38
2018-06-11T07:40:27.709Z,736.88
2018-06-11T07:41:27.716Z,765.00
2018-06-11T07:42:27.707Z,866.25
2018-06-11T07:43:27.706Z,1006.88
2018-06-11T07:44:27.708Z,1096.88
2018-06-11T07:45:27.704Z,1271.25
2018-06-11T07:46:27.702Z,1344.38
2018-06-11T07:47:27.702Z,1777.50
2018-06-11T07:48:27.704Z,1170.00
2018-06-11T07:49:27.704Z,1029.38
2018-06-11T07:50:27.702Z,922.50
2018-06-11T07:51:27.700Z,933.75
2018-06-11T07:52:27.705Z,922.50
2018-06-11T07:53:27.703Z,1074.38
2018-06-11T07:54:27.699Z,1209.38
2018-06-11T07:55:27.699Z,1288.13
2018-06-11T07:56:27.700Z,1434.38
2018-06-11T07:57:27.706Z,1226.25
2018-06-11T07:58:27.700Z,1085.63
2018-06-11T07:59:27.700Z,1130.63
2018-06-11T08:00:27.701Z,1192.50
2018-06-11T08:01:27.760Z,2092.50
2018-06-11T08:02:27.702Z,2401.88
2018-06-11T08:03:27.709Z,2176.88
2018-06-11T08:04:27.708Z,1372.50
2018-06-11T08:05:27.909Z,1361.25
2018-06-11T08:06:27.709Z,1895.63
2018-06-11T08:07:27.731Z,1468.13
2018-06-11T08:08:27.718Z,1158.75
2018-06-11T08:09:27.715Z,1102.50
2018-06-11T08:10:27.715Z,1068.75
2018-06-11T08:11:27.718Z,1102.50
2018-06-11T08:12:27.721Z,1186.88
2018-06-11T08:13:27.787Z,1018.13
2018-06-11T08:14:27.725Z,933.75
2018-06-11T08:15:27.727Z,916.88
2018-06-11T08:16:27.727Z,1119.38
2018-06-11T08:17:27.931Z,1192.50
2018-06-11T08:18:27.729Z,1468.13
2018-06-11T08:19:27.732Z,1231.88
2018-06-11T08:20:27.733Z,1372.50
2018-06-11T08:21:27.735Z,1113.75
2018-06-11T08:22:27.741Z,1456.88
2018-06-11T08:23:27.741Z,2643.75
2018-06-11T08:25:27.743Z,2424.38
2018-06-11T08:26:27.747Z,2081.25
2018-06-11T08:27:27.783Z,1777.50
2018-06-11T08:28:27.753Z,1057.50
2018-06-11T08:29:27.756Z,933.75
2018-06-11T08:30:27.757Z,883.13
2018-06-11T08:31:27.760Z,984.38
2018-06-11T08:32:27.766Z,1074.38
2018-06-11T08:33:27.967Z,1231.88
2018-06-11T08:34:27.767Z,1366.88
2018-06-11T08:35:27.772Z,1518.75
2018-06-11T08:36:27.773Z,1417.50
2018-06-11T08:37:27.775Z,1501.88
2018-06-11T08:38:27.776Z,1361.25
2018-06-11T08:39:27.779Z,1485.00
2018-06-11T08:40:27.782Z,1468.13
2018-06-11T08:41:27.784Z,1333.13
2018-06-11T08:42:27.787Z,1260.00
2018-06-11T08:43:27.790Z,1108.13
2018-06-11T08:44:27.792Z,1074.38
2018-06-11T08:45:27.799Z,1018.13
2018-06-11T08:46:27.797Z,911.25
2018-06-11T08:47:27.799Z,804.38
2018-06-11T08:48:27.802Z,708.75
2018-06-11T08:49:27.804Z,630.00
2018-06-11T08:50:27.811Z,607.50
2018-06-11T08:51:27.807Z,624.38
2018-06-11T08:52:27.809Z,680.63
2018-06-11T08:53:27.815Z,781.88
2018-06-11T08:54:27.816Z,1051.88
2018-06-11T08:55:27.813Z,2098.13
2018-06-11T08:56:27.820Z,2407.50
2018-06-11T08:57:27.818Z,2745.00
2018-06-11T08:58:27.821Z,2137.50
2018-06-11T08:59:27.821Z,1389.38
2018-06-11T09:00:27.827Z,1265.63
2018-06-11T09:01:27.827Z,1299.38
2018-06-11T09:02:27.829Z,1440.00
2018-06-11T09:03:27.834Z,1496.25
2018-06-11T09:04:27.836Z,1878.75
2018-06-11T09:05:27.839Z,1963.13
2018-06-11T09:06:27.842Z,2036.25
2018-06-11T09:07:27.847Z,1715.63
2018-06-11T09:08:27.849Z,1788.75
2018-06-11T09:09:27.853Z,2064.38
2018-06-11T09:10:27.856Z,1873.13
2018-06-11T09:11:27.864Z,1940.63
2018-06-11T09:12:27.866Z,1800.00
2018-06-11T09:13:28.074Z,1670.63
2018-06-11T09:14:27.873Z,1597.50
2018-06-11T09:15:27.881Z,1974.38
2018-06-11T09:16:27.883Z,1648.13
2018-06-11T09:17:27.891Z,1749.38
2018-06-11T09:18:28.063Z,1546.88
2018-06-11T09:19:27.896Z,1620.00
2018-06-11T09:20:27.901Z,1794.38
2018-06-11T09:21:27.906Z,1912.50
2018-06-11T09:22:27.911Z,1811.25
2018-06-11T09:23:27.919Z,1681.88
2018-06-11T09:24:27.925Z,1665.00
2018-06-11T09:25:27.930Z,1794.38
2018-06-11T09:26:27.930Z,2036.25
2018-06-11T09:27:27.937Z,1653.75
2018-06-11T09:28:27.944Z,1845.00
2018-06-11T09:29:27.948Z,2188.13
2018-06-11T09:30:27.951Z,1833.75
2018-06-11T09:31:27.958Z,1816.88
2018-06-11T09:32:27.965Z,1833.75
2018-06-11T09:33:27.972Z,1918.13
2018-06-11T09:34:27.973Z,1805.63
2018-06-11T09:35:27.978Z,1676.25
2018-06-11T09:36:27.984Z,1940.63
2018-06-11T09:37:27.993Z,2131.88
2018-06-11T09:38:27.995Z,2508.75
2018-06-11T09:39:28.003Z,1974.38
2018-06-11T09:40:28.010Z,1940.63
2018-06-11T09:41:28.015Z,1856.25
2018-06-11T09:42:28.020Z,1822.50
2018-06-11T09:43:28.028Z,1957.50
2018-06-11T09:44:28.033Z,2221.88
2018-06-11T09:45:28.042Z,3121.88
2018-06-11T09:46:28.045Z,2362.50
2018-06-11T09:47:28.052Z,2790.00
2018-06-11T09:48:28.059Z,1991.25
2018-06-11T09:49:28.073Z,2250.00
2018-06-11T09:50:28.072Z,2216.25
2018-06-11T09:51:28.080Z,2621.25
2018-06-11T09:52:28.089Z,2643.75
2018-06-11T09:53:28.095Z,3448.13
2018-06-11T09:54:28.104Z,3571.88
2018-06-11T09:55:28.110Z,2745.00
2018-06-11T09:56:28.124Z,3971.25
2018-06-11T09:57:28.132Z,2469.38
2018-06-11T09:58:28.340Z,3555.00
2018-06-11T09:59:28.153Z,3262.50
2018-06-11T10:00:28.158Z,2750.63
2018-06-11T10:01:28.168Z,3650.63
2018-06-11T10:02:28.180Z,3448.13
2018-06-11T10:03:28.188Z,2233.13
2018-06-11T10:04:28.200Z,2553.75
2018-06-11T10:05:28.256Z,2385.00
2018-06-11T10:06:28.223Z,2722.50
2018-06-11T10:07:28.232Z,3026.25
2018-06-11T10:08:28.251Z,2311.88
2018-06-11T10:09:28.255Z,2160.00
2018-06-11T10:10:28.264Z,2531.25
2018-06-11T10:11:28.277Z,2390.63
2018-06-11T10:12:28.335Z,1991.25
2018-06-11T10:13:28.303Z,1743.75
2018-06-11T10:14:28.305Z,1715.63
2018-06-11T10:15:28.527Z,1816.88
2018-06-11T10:16:28.325Z,1861.88
2018-06-11T10:17:28.537Z,1940.63
2018-06-11T10:18:28.344Z,1951.88
2018-06-11T10:19:28.354Z,2137.50
2018-06-11T10:20:28.366Z,2295.00
2018-06-11T10:21:28.372Z,2283.75
2018-06-11T10:22:28.381Z,2390.63
2018-06-11T10:23:28.395Z,2581.88
2018-06-11T10:24:28.402Z,2610.00
2018-06-11T10:25:28.611Z,2396.25
2018-06-11T10:26:28.417Z,2649.38
2018-06-11T10:27:28.426Z,2385.00
2018-06-11T10:28:28.436Z,2221.88
2018-06-11T10:29:28.446Z,2553.75
2018-06-11T10:30:28.454Z,3127.50
2018-06-11T10:31:28.465Z,2593.13
2018-06-11T10:32:28.476Z,3138.75
2018-06-11T10:33:28.485Z,3307.50
2018-06-11T10:34:28.493Z,3228.75
2018-06-11T10:35:28.506Z,3195.00
2018-06-11T10:36:28.514Z,3172.50
2018-06-11T10:37:28.525Z,3048.75
2018-06-11T10:38:28.541Z,2739.38
2018-06-11T10:39:28.551Z,2745.00
2018-06-11T10:40:28.561Z,2812.50
2018-06-11T10:41:28.576Z,2958.75
2018-06-11T10:42:28.581Z,2992.50
2018-06-11T10:43:28.595Z,2986.88
2018-06-11T10:44:28.608Z,2829.38
2018-06-11T10:45:28.634Z,2913.75
2018-06-11T10:46:28.630Z,2941.88
2018-06-11T10:47:28.642Z,2975.63
2018-06-11T10:48:28.660Z,2885.63
2018-06-11T10:49:28.673Z,3009.38
2018-06-11T10:50:28.679Z,2846.25
2018-06-11T10:51:28.899Z,2986.88
2018-06-11T10:52:28.704Z,3043.13
2018-06-11T10:53:28.717Z,2840.63
2018-06-11T10:54:28.731Z,2840.63
2018-06-11T10:55:28.746Z,2660.63
2018-06-11T10:56:28.755Z,2576.25
2018-06-11T10:57:28.767Z,2835.00
2018-06-11T10:58:28.780Z,2930.63
2018-06-11T10:59:28.800Z,2835.00
2018-06-11T11:00:28.806Z,2756.25
2018-06-11T11:01:28.819Z,2958.75
2018-06-11T11:02:28.831Z,2790.00
2018-06-11T11:03:29.046Z,3144.38
2018-06-11T11:04:28.865Z,3296.25
2018-06-11T11:05:28.871Z,3436.88
2018-06-11T11:06:28.884Z,3380.63
2018-06-11T11:07:28.896Z,3403.13
2018-06-11T11:08:28.912Z,3166.88
2018-06-11T11:09:28.924Z,2880.00
2018-06-11T11:10:28.936Z,3223.13
2018-06-11T11:11:28.949Z,3217.50
2018-06-11T11:12:28.989Z,3133.13
2018-06-11T11:13:28.977Z,3048.75
2018-06-11T11:14:28.990Z,3217.50
2018-06-11T11:15:29.003Z,3127.50
2018-06-11T11:16:29.024Z,3296.25
2018-06-11T11:17:29.033Z,3065.63
2018-06-11T11:18:29.051Z,3088.13
2018-06-11T11:19:29.056Z,2998.13
2018-06-11T11:20:29.070Z,2919.38
2018-06-11T11:21:29.084Z,2851.88
2018-06-11T11:22:29.101Z,2941.88
2018-06-11T11:23:29.109Z,3026.25
2018-06-11T11:24:29.125Z,2981.25
2018-06-11T11:25:29.136Z,3054.38
2018-06-11T11:26:29.148Z,2908.13
2018-06-11T11:27:29.161Z,2688.75
2018-06-11T11:28:29.183Z,2677.50
2018-06-11T11:29:29.194Z,2778.75
2018-06-11T11:30:29.200Z,2790.00
2018-06-11T11:31:29.215Z,2632.50
2018-06-11T11:32:29.224Z,2700.00
2018-06-11T11:33:29.237Z,2553.75
2018-06-11T11:34:29.251Z,2688.75
2018-06-11T11:35:29.261Z,2283.75
2018-06-11T11:36:29.273Z,2227.50
2018-06-11T11:37:29.288Z,2413.13
2018-06-11T11:38:29.297Z,2418.75
2018-06-11T11:39:29.312Z,2435.63
2018-06-11T11:40:29.321Z,2576.25
2018-06-11T11:41:29.334Z,2362.50
2018-06-11T11:42:29.347Z,2289.38
2018-06-11T11:43:29.354Z,2176.88
2018-06-11T11:44:29.370Z,2086.88
2018-06-11T11:45:29.382Z,2233.13
2018-06-11T11:46:29.386Z,2120.63
2018-06-11T11:47:29.601Z,2255.63
2018-06-11T11:48:29.409Z,2075.63
2018-06-11T11:49:29.418Z,1946.25
2018-06-11T11:50:29.428Z,2115.00
2018-06-11T11:51:29.438Z,2289.38
2018-06-11T11:52:29.449Z,2362.50
2018-06-11T11:53:29.458Z,1755.00
2018-06-11T11:54:29.467Z,2238.75
2018-06-11T11:55:29.477Z,1890.00
2018-06-11T11:56:29.488Z,1417.50
2018-06-11T11:57:29.526Z,1451.25
2018-06-11T11:58:29.509Z,1923.75
2018-06-11T11:59:29.514Z,1901.25
2018-06-11T12:00:29.527Z,1766.25
2018-06-11T12:01:29.531Z,1923.75
2018-06-11T12:02:29.539Z,1665.00
2018-06-11T12:03:29.548Z,1980.00
2018-06-11T12:04:29.559Z,2199.38
2018-06-11T12:05:29.565Z,2019.38
2018-06-11T12:06:29.572Z,2401.88
2018-06-11T12:07:29.582Z,2351.25
2018-06-11T12:08:29.589Z,1985.63
2018-06-11T12:09:29.598Z,1929.38
2018-06-11T12:10:29.605Z,2266.88
2018-06-11T12:11:29.614Z,2806.88
2018-06-11T12:12:29.624Z,3015.00
2018-06-11T12:13:29.631Z,2722.50
2018-06-11T12:14:29.639Z,1895.63
2018-06-11T12:15:29.653Z,2491.88
2018-06-11T12:16:29.659Z,2452.50
2018-06-11T12:17:29.667Z,1631.25
2018-06-11T12:18:29.675Z,1845.00
2018-06-11T12:19:29.686Z,2221.88
2018-06-11T12:20:29.696Z,1890.00
2018-06-11T12:21:29.704Z,2401.88
2018-06-11T12:22:29.712Z,1648.13
2018-06-11T12:23:29.719Z,1693.13
2018-06-11T12:24:29.731Z,2671.88
2018-06-11T12:25:29.737Z,3116.25
2018-06-11T12:26:29.752Z,3031.88
2018-06-11T12:27:29.755Z,2840.63
2018-06-11T12:28:29.765Z,2351.25
2018-06-11T12:29:29.774Z,2227.50
2018-06-11T12:30:29.790Z,2216.25
2018-06-11T12:31:29.793Z,2345.63
2018-06-11T12:32:29.806Z,2756.25
2018-06-11T12:33:29.812Z,3093.75
2018-06-11T12:34:29.823Z,3161.25
2018-06-11T12:35:29.832Z,3183.75
2018-06-11T12:36:29.843Z,2733.75